Time;durP1;ratioP1;P1;durP2;ratioP2;P2;SDS_P1;SDS_P2;PMS_P1;PMS_P2;Temp;Humidity;BMP_temperature;BMP_pressure;BME280_temperature;BME280_humidity;BME280_pressure;Samples;Min_cycle;Max_cycle;Signal;HPM_P1;HPM_P2
2022/05/08 00:00:46;;;;;;;1.47;1.37;;;;;;;;;;5034647;28;20300;-56
2022/05/08 00:03:33;;;;;;;1.40;1.30;;;;;;;;;;5031893;28;20686;-56
2022/05/08 00:06:20;;;;;;;1.50;1.40;;;;;;;;;;5031711;28;20743;-57
2022/05/08 00:09:09;;;;;;;1.60;1.50;;;;;;;;;;5031281;28;20253;-56
2022/05/08 00:11:56;;;;;;;2.50;2.00;;;;;;;;;;5034166;28;20269;-56
2022/05/08 00:14:44;;;;;;;1.73;1.47;;;;;;;;;;5031974;28;20246;-56
2022/05/08 00:17:34;;;;;;;1.60;1.50;;;;;;;;;;5032240;28;20206;-56
2022/05/08 00:20:21;;;;;;;1.50;1.40;;;;;;;;;;5035109;28;20353;-55
2022/05/08 00:23:07;;;;;;;1.37;1.27;;;;;;;;;;5033444;28;20749;-56
2022/05/08 00:25:56;;;;;;;1.97;1.87;;;;;;;;;;5031041;28;20209;-56
2022/05/08 00:28:43;;;;;;;1.53;1.43;;;;;;;;;;5030581;28;20307;-55
2022/05/08 00:31:30;;;;;;;1.60;1.50;;;;;;;;;;5032319;28;20361;-56
2022/05/08 00:34:17;;;;;;;1.57;1.47;;;;;;;;;;5035798;28;20558;-56
2022/05/08 00:37:05;;;;;;;1.57;1.47;;;;;;;;;;5029289;28;20298;-56
2022/05/08 00:39:52;;;;;;;1.60;1.50;;;;;;;;;;5031620;28;20242;-56
2022/05/08 00:42:41;;;;;;;1.50;1.40;;;;;;;;;;5032221;28;20215;-56
2022/05/08 00:45:28;;;;;;;1.87;1.63;;;;;;;;;;5030243;28;20214;-56
2022/05/08 00:48:15;;;;;;;1.40;1.30;;;;;;;;;;5029444;28;20335;-56
2022/05/08 00:51:04;;;;;;;1.67;1.57;;;;;;;;;;5033498;28;20742;-56
2022/05/08 00:53:52;;;;;;;1.63;1.53;;;;;;;;;;5036665;28;20284;-56
2022/05/08 00:56:41;;;;;;;1.27;1.17;;;;;;;;;;5036107;28;20259;-56
2022/05/08 00:59:29;;;;;;;1.40;1.30;;;;;;;;;;5031083;28;20293;-56
2022/05/08 01:02:17;;;;;;;1.70;1.60;;;;;;;;;;5038751;28;20321;-56
2022/05/08 01:05:04;;;;;;;1.83;1.50;;;;;;;;;;5032327;28;20209;-56
2022/05/08 01:07:51;;;;;;;1.70;1.60;;;;;;;;;;5036815;28;21010;-56
2022/05/08 01:10:39;;;;;;;3.00;2.07;;;;;;;;;;5038063;28;20210;-57
2022/05/08 01:13:26;;;;;;;1.90;1.80;;;;;;;;;;5032746;28;20244;-56
2022/05/08 01:16:16;;;;;;;1.50;1.40;;;;;;;;;;5034337;28;20715;-56
2022/05/08 01:19:03;;;;;;;1.57;1.47;;;;;;;;;;5031718;28;20264;-56
2022/05/08 01:21:51;;;;;;;2.17;1.97;;;;;;;;;;5033135;28;20212;-56
2022/05/08 01:24:38;;;;;;;2.00;1.90;;;;;;;;;;5030143;28;20696;-56
2022/05/08 01:27:25;;;;;;;2.20;2.10;;;;;;;;;;5033152;28;20231;-56
2022/05/08 01:30:12;;;;;;;1.50;1.40;;;;;;;;;;5032134;28;20238;-56
2022/05/08 01:33:00;;;;;;;1.77;1.67;;;;;;;;;;5033662;28;20300;-57
2022/05/08 01:35:49;;;;;;;1.70;1.60;;;;;;;;;;5033275;28;20240;-57
2022/05/08 01:38:37;;;;;;;1.67;1.57;;;;;;;;;;5031954;28;20214;-57
2022/05/08 01:41:24;;;;;;;1.83;1.70;;;;;;;;;;5032339;28;20281;-57
2022/05/08 01:44:11;;;;;;;1.53;1.43;;;;;;;;;;5027901;28;20210;-56
2022/05/08 01:49:59;;;;;;;2.27;1.90;;;;;;;;;;5020764;28;20246;-56
2022/05/08 01:52:45;;;;;;;1.50;1.43;;;;;;;;;;5017247;28;20260;-56
2022/05/08 01:55:34;;;;;;;3.20;1.80;;;;;;;;;;5018605;28;20323;-56
2022/05/08 01:58:21;;;;;;;1.53;1.43;;;;;;;;;;5019841;28;20210;-56
2022/05/08 02:01:10;;;;;;;1.93;1.73;;;;;;;;;;5021101;28;20285;-56
2022/05/08 02:03:57;;;;;;;1.50;1.40;;;;;;;;;;5020283;28;20671;-56
2022/05/08 02:06:44;;;;;;;1.70;1.60;;;;;;;;;;5016376;28;20286;-56
2022/05/08 02:09:31;;;;;;;1.53;1.40;;;;;;;;;;5015784;28;20219;-57
2022/05/08 02:12:19;;;;;;;1.33;1.30;;;;;;;;;;5013336;28;20299;-56
2022/05/08 02:15:08;;;;;;;1.60;1.50;;;;;;;;;;5014086;28;20284;-57
2022/05/08 02:17:55;;;;;;;1.73;1.47;;;;;;;;;;5016352;28;20267;-56
2022/05/08 02:20:42;;;;;;;1.50;1.40;;;;;;;;;;5017071;28;20621;-56
2022/05/08 02:23:29;;;;;;;1.60;1.50;;;;;;;;;;5014757;28;20697;-56
2022/05/08 02:26:16;;;;;;;1.57;1.40;;;;;;;;;;5018902;28;20212;-56
2022/05/08 02:29:04;;;;;;;1.60;1.50;;;;;;;;;;5016894;28;20288;-56
2022/05/08 02:31:51;;;;;;;1.40;1.30;;;;;;;;;;5017457;28;20333;-56
2022/05/08 02:34:38;;;;;;;1.40;1.30;;;;;;;;;;5016944;28;20258;-56
2022/05/08 02:37:25;;;;;;;1.60;1.40;;;;;;;;;;5016693;28;20221;-56
2022/05/08 02:40:12;;;;;;;1.40;1.03;;;;;;;;;;5016358;28;20214;-57
2022/05/08 02:42:59;;;;;;;1.50;1.40;;;;;;;;;;5023694;28;20208;-56
2022/05/08 02:45:48;;;;;;;1.70;1.60;;;;;;;;;;5010088;28;20242;-56
2022/05/08 02:48:34;;;;;;;1.70;1.60;;;;;;;;;;5016177;28;20325;-57
2022/05/08 02:51:21;;;;;;;1.30;1.20;;;;;;;;;;5015438;28;20284;-57
2022/05/08 02:54:08;;;;;;;1.40;1.30;;;;;;;;;;5023409;28;20712;-57
2022/05/08 03:00:05;;;;;;;1.67;1.57;;;;;;;;;;5019448;28;20217;-56
2022/05/08 03:02:54;;;;;;;1.50;1.40;;;;;;;;;;5016185;28;20261;-56
2022/05/08 03:05:43;;;;;;;1.33;1.23;;;;;;;;;;5017712;28;20276;-56
2022/05/08 03:08:30;;;;;;;2.10;1.40;;;;;;;;;;5020148;28;20670;-56
2022/05/08 03:11:26;;;;;;;1.10;1.00;;;;;;;;;;5018156;28;20745;-57
2022/05/08 03:14:13;;;;;;;1.30;1.20;;;;;;;;;;5016659;28;20206;-56
2022/05/08 03:17:00;;;;;;;1.30;1.20;;;;;;;;;;5017512;28;20238;-57
2022/05/08 03:19:48;;;;;;;1.40;1.30;;;;;;;;;;5017077;28;20300;-56
2022/05/08 03:22:35;;;;;;;1.30;1.20;;;;;;;;;;5023440;28;20675;-56
2022/05/08 03:25:22;;;;;;;1.50;1.30;;;;;;;;;;5017988;28;20254;-56
2022/05/08 03:28:09;;;;;;;1.50;1.40;;;;;;;;;;5018723;28;20251;-56
2022/05/08 03:30:56;;;;;;;1.80;1.40;;;;;;;;;;5022338;28;20211;-56
2022/05/08 03:33:43;;;;;;;1.50;1.40;;;;;;;;;;5023167;28;20765;-57
2022/05/08 03:36:31;;;;;;;1.27;0.97;;;;;;;;;;5023506;28;20250;-56
2022/05/08 03:39:18;;;;;;;1.43;1.20;;;;;;;;;;5018797;28;20345;-56
2022/05/08 03:42:05;;;;;;;1.60;1.50;;;;;;;;;;5021051;28;20349;-56
2022/05/08 03:44:53;;;;;;;1.37;1.27;;;;;;;;;;5017883;28;20215;-57
2022/05/08 03:47:40;;;;;;;1.30;1.20;;;;;;;;;;5022632;28;20638;-56
2022/05/08 03:50:27;;;;;;;1.40;1.30;;;;;;;;;;5022475;28;20313;-56
2022/05/08 03:53:16;;;;;;;1.40;1.30;;;;;;;;;;5020474;28;20228;-56
2022/05/08 03:56:03;;;;;;;1.47;1.37;;;;;;;;;;5024861;28;20292;-56
2022/05/08 03:58:50;;;;;;;1.30;1.20;;;;;;;;;;5017450;28;20762;-57
2022/05/08 04:01:37;;;;;;;1.47;1.37;;;;;;;;;;5020920;28;20272;-56
2022/05/08 04:04:24;;;;;;;1.37;1.20;;;;;;;;;;5020972;28;20273;-56
2022/05/08 04:07:12;;;;;;;2.37;1.40;;;;;;;;;;5015424;28;20209;-56
2022/05/08 04:10:01;;;;;;;1.33;1.23;;;;;;;;;;5019949;28;20219;-56
2022/05/08 04:12:48;;;;;;;1.27;1.17;;;;;;;;;;5022519;28;20287;-57
2022/05/08 04:18:39;;;;;;;1.10;1.00;;;;;;;;;;5024178;28;20213;-56
2022/05/08 04:21:27;;;;;;;1.20;1.10;;;;;;;;;;5014814;28;20299;-56
2022/05/08 04:24:19;;;;;;;2.20;1.40;;;;;;;;;;5015843;28;20294;-56
2022/05/08 04:27:07;;;;;;;1.47;1.40;;;;;;;;;;5017999;28;20232;-57
2022/05/08 04:29:54;;;;;;;1.40;1.30;;;;;;;;;;5018362;28;20681;-56
2022/05/08 04:32:41;;;;;;;1.30;1.20;;;;;;;;;;5018614;28;20691;-57
2022/05/08 04:35:28;;;;;;;1.40;1.30;;;;;;;;;;5019209;28;20209;-56
2022/05/08 04:38:15;;;;;;;1.20;1.10;;;;;;;;;;5020044;28;20294;-56
2022/05/08 04:41:02;;;;;;;1.23;1.13;;;;;;;;;;5015467;28;20295;-56
2022/05/08 04:43:51;;;;;;;1.03;1.00;;;;;;;;;;5014283;28;20212;-56
2022/05/08 04:46:38;;;;;;;1.40;1.30;;;;;;;;;;5020222;28;20201;-56
2022/05/08 04:49:25;;;;;;;1.20;1.20;;;;;;;;;;5019663;28;20721;-57
2022/05/08 04:52:12;;;;;;;1.67;1.23;;;;;;;;;;5022934;28;20690;-56
2022/05/08 04:55:03;;;;;;;1.10;1.10;;;;;;;;;;5019441;28;20666;-57
2022/05/08 04:57:49;;;;;;;0.93;0.93;;;;;;;;;;5024136;28;20311;-56
2022/05/08 05:00:39;;;;;;;1.10;1.10;;;;;;;;;;5017793;28;20213;-56
2022/05/08 05:03:26;;;;;;;1.10;1.10;;;;;;;;;;5018811;28;20229;-56
2022/05/08 05:06:12;;;;;;;1.23;1.10;;;;;;;;;;5020238;28;20689;-56
2022/05/08 05:08:59;;;;;;;1.30;1.20;;;;;;;;;;5022677;28;20292;-56
2022/05/08 05:11:46;;;;;;;2.33;1.50;;;;;;;;;;5014106;28;20343;-57
2022/05/08 05:14:34;;;;;;;1.40;1.30;;;;;;;;;;5020042;28;20213;-56
2022/05/08 05:17:22;;;;;;;1.40;1.30;;;;;;;;;;5014809;28;20286;-57
2022/05/08 05:20:10;;;;;;;1.37;1.10;;;;;;;;;;5015196;28;20225;-57
2022/05/08 05:23:00;;;;;;;1.10;1.10;;;;;;;;;;5020393;28;20268;-57
2022/05/08 05:25:47;;;;;;;1.83;1.23;;;;;;;;;;5018177;28;20204;-57
2022/05/08 05:28:34;;;;;;;1.03;1.03;;;;;;;;;;5015710;28;20287;-56
2022/05/08 05:31:21;;;;;;;1.47;1.30;;;;;;;;;;5015113;28;20220;-57
2022/05/08 05:34:10;;;;;;;1.10;1.10;;;;;;;;;;5020181;28;20787;-57
2022/05/08 05:36:57;;;;;;;1.23;1.17;;;;;;;;;;5017517;28;20597;-57
2022/05/08 05:39:43;;;;;;;1.40;1.30;;;;;;;;;;5021815;28;20200;-57
2022/05/08 05:42:32;;;;;;;1.30;1.20;;;;;;;;;;5018661;28;20292;-56
2022/05/08 05:45:19;;;;;;;1.47;1.37;;;;;;;;;;5017060;28;20309;-57
2022/05/08 05:48:05;;;;;;;1.40;1.30;;;;;;;;;;5016788;28;20556;-57
2022/05/08 05:50:53;;;;;;;1.33;1.23;;;;;;;;;;5015780;28;20243;-57
2022/05/08 05:53:40;;;;;;;1.00;1.00;;;;;;;;;;5017680;28;20260;-57
2022/05/08 05:56:27;;;;;;;1.30;1.20;;;;;;;;;;5018515;28;20318;-56
2022/05/08 05:59:14;;;;;;;1.47;1.37;;;;;;;;;;5016990;28;20248;-56
2022/05/08 06:02:01;;;;;;;1.50;1.40;;;;;;;;;;5018180;28;20222;-57
2022/05/08 06:04:48;;;;;;;1.40;1.30;;;;;;;;;;5013705;28;20205;-56
2022/05/08 06:07:38;;;;;;;1.33;1.10;;;;;;;;;;5017702;28;20291;-56
2022/05/08 06:10:25;;;;;;;1.13;1.03;;;;;;;;;;5017550;28;20321;-57
2022/05/08 06:13:12;;;;;;;1.30;1.20;;;;;;;;;;5017258;28;20227;-57
2022/05/08 06:15:59;;;;;;;1.30;1.20;;;;;;;;;;5015485;28;20215;-57
2022/05/08 06:18:46;;;;;;;1.13;1.07;;;;;;;;;;5012663;28;20203;-57
2022/05/08 06:21:33;;;;;;;1.40;1.30;;;;;;;;;;5018212;28;20214;-56
2022/05/08 06:24:21;;;;;;;1.07;1.07;;;;;;;;;;5019802;28;20300;-57
2022/05/08 06:27:08;;;;;;;1.60;1.33;;;;;;;;;;5020753;28;20291;-56
2022/05/08 06:29:55;;;;;;;0.90;0.90;;;;;;;;;;5009718;28;20652;-57
2022/05/08 06:32:42;;;;;;;1.10;1.10;;;;;;;;;;5015363;28;20586;-58
2022/05/08 06:35:29;;;;;;;1.15;1.10;;;;;;;;;;5017234;28;20677;-56
2022/05/08 06:38:16;;;;;;;1.15;1.05;;;;;;;;;;5021896;28;20711;-57
2022/05/08 06:41:04;;;;;;;1.00;1.00;;;;;;;;;;5017971;28;20221;-55
2022/05/08 06:43:53;;;;;;;1.35;0.93;;;;;;;;;;5017216;28;20736;-56
2022/05/08 06:46:40;;;;;;;1.10;0.98;;;;;;;;;;5021457;28;20586;-57
2022/05/08 06:49:27;;;;;;;1.00;1.00;;;;;;;;;;5032777;28;20290;-55
2022/05/08 06:52:14;;;;;;;1.10;1.10;;;;;;;;;;5032555;28;20643;-56
2022/05/08 06:55:01;;;;;;;0.77;0.77;;;;;;;;;;5033342;28;20212;-56
2022/05/08 06:57:49;;;;;;;0.98;0.93;;;;;;;;;;5036741;28;20304;-55
2022/05/08 07:03:40;;;;;;;0.80;0.80;;;;;;;;;;5041354;28;20664;-54
2022/05/08 07:06:27;;;;;;;0.90;0.90;;;;;;;;;;5033333;28;20725;-55
2022/05/08 07:09:14;;;;;;;1.65;1.15;;;;;;;;;;5032800;28;20290;-54
2022/05/08 07:12:01;;;;;;;2.30;1.02;;;;;;;;;;5037108;28;20729;-54
2022/05/08 07:14:50;;;;;;;0.98;0.93;;;;;;;;;;5030340;28;20795;-55
2022/05/08 07:17:37;;;;;;;1.00;1.00;;;;;;;;;;5033343;28;20228;-54
2022/05/08 07:20:24;;;;;;;0.77;0.77;;;;;;;;;;5035973;28;20290;-54
2022/05/08 07:23:11;;;;;;;1.00;1.00;;;;;;;;;;5031786;28;20212;-55
2022/05/08 07:25:58;;;;;;;1.05;0.70;;;;;;;;;;5033020;28;20209;-54
2022/05/08 07:28:45;;;;;;;1.38;1.15;;;;;;;;;;5033785;28;20680;-55
2022/05/08 07:31:33;;;;;;;1.30;0.80;;;;;;;;;;5034259;28;20239;-55
2022/05/08 07:37:25;;;;;;;1.02;1.02;;;;;;;;;;5032184;28;20230;-55
2022/05/08 07:40:13;;;;;;;1.02;1.02;;;;;;;;;;5031703;28;20338;-55
2022/05/08 07:42:59;;;;;;;2.80;1.05;;;;;;;;;;5031248;28;20680;-54
2022/05/08 07:45:46;;;;;;;1.77;1.05;;;;;;;;;;5033078;28;20232;-55
2022/05/08 07:48:35;;;;;;;1.00;1.00;;;;;;;;;;5031321;28;20310;-55
2022/05/08 07:51:22;;;;;;;1.00;1.00;;;;;;;;;;5031038;28;20236;-55
2022/05/08 07:54:09;;;;;;;0.70;0.70;;;;;;;;;;5031363;28;20322;-55
2022/05/08 07:56:55;;;;;;;0.70;0.70;;;;;;;;;;5028810;28;20323;-55
2022/05/08 07:59:42;;;;;;;0.80;0.70;;;;;;;;;;5032247;28;20790;-56
2022/05/08 08:02:29;;;;;;;0.80;0.80;;;;;;;;;;5033194;28;20299;-55
2022/05/08 08:05:18;;;;;;;0.90;0.90;;;;;;;;;;5032098;28;20290;-55
2022/05/08 08:08:05;;;;;;;0.93;0.93;;;;;;;;;;5034270;28;20292;-55
2022/05/08 08:10:56;;;;;;;1.08;1.08;;;;;;;;;;5029388;28;20208;-55
2022/05/08 08:13:43;;;;;;;0.70;0.70;;;;;;;;;;5031708;28;20213;-56
2022/05/08 08:16:30;;;;;;;1.92;0.93;;;;;;;;;;5030720;28;20224;-55
2022/05/08 08:19:17;;;;;;;1.10;1.10;;;;;;;;;;5029398;28;20367;-55
2022/05/08 08:22:05;;;;;;;0.93;0.93;;;;;;;;;;5038399;28;20292;-55
2022/05/08 08:24:52;;;;;;;1.00;0.88;;;;;;;;;;5040390;28;20357;-55
2022/05/08 08:27:39;;;;;;;0.80;0.80;;;;;;;;;;5030634;28;20208;-55
2022/05/08 08:30:26;;;;;;;1.00;1.00;;;;;;;;;;5030131;28;20445;-55
2022/05/08 08:33:13;;;;;;;1.08;0.98;;;;;;;;;;5033125;28;20251;-55
2022/05/08 08:36:00;;;;;;;0.80;0.80;;;;;;;;;;5029883;28;20739;-55
2022/05/08 08:38:49;;;;;;;0.90;0.90;;;;;;;;;;5031330;28;20250;-55
2022/05/08 08:41:37;;;;;;;0.85;0.85;;;;;;;;;;5029682;28;20288;-54
2022/05/08 08:47:45;;;;;;;0.90;0.88;;;;;;;;;;5031286;28;20291;-55
2022/05/08 08:50:33;;;;;;;0.70;0.70;;;;;;;;;;5032145;28;20218;-55
2022/05/08 08:53:20;;;;;;;0.80;0.80;;;;;;;;;;5035573;28;20229;-55
2022/05/08 08:56:08;;;;;;;0.90;0.90;;;;;;;;;;5031866;28;20245;-56
2022/05/08 08:58:55;;;;;;;1.17;1.02;;;;;;;;;;5029863;28;20254;-56
2022/05/08 09:01:43;;;;;;;0.80;0.80;;;;;;;;;;5028934;28;20294;-56
2022/05/08 09:04:32;;;;;;;0.60;0.60;;;;;;;;;;5035570;28;20220;-55
2022/05/08 09:07:39;;;;;;;0.90;0.90;;;;;;;;;;5029490;28;20212;-56
2022/05/08 09:10:28;;;;;;;1.08;0.82;;;;;;;;;;5030716;28;20307;-56
2022/05/08 09:13:18;;;;;;;0.73;0.73;;;;;;;;;;5030717;28;20438;-55
2022/05/08 09:16:07;;;;;;;1.17;1.08;;;;;;;;;;5030950;28;20216;-56
2022/05/08 09:18:54;;;;;;;0.82;0.82;;;;;;;;;;5031292;28;20353;-55
2022/05/08 09:21:58;;;;;;;0.70;0.70;;;;;;;;;;5035336;28;20219;-56
2022/05/08 09:24:51;;;;;;;0.75;0.75;;;;;;;;;;5030870;28;20219;-55
2022/05/08 09:27:38;;;;;;;0.40;0.40;;;;;;;;;;5031899;28;20241;-57
2022/05/08 09:30:27;;;;;;;0.63;0.63;;;;;;;;;;5030227;28;20203;-55
2022/05/08 09:33:23;;;;;;;0.70;0.70;;;;;;;;;;5030070;28;20248;-55
2022/05/08 09:36:12;;;;;;;0.80;0.80;;;;;;;;;;5033365;28;20219;-55
2022/05/08 09:39:01;;;;;;;0.85;0.73;;;;;;;;;;5030007;28;20718;-55
2022/05/08 09:41:47;;;;;;;0.98;0.85;;;;;;;;;;5029885;28;20218;-56
2022/05/08 09:44:34;;;;;;;0.60;0.60;;;;;;;;;;5031151;28;20304;-55
2022/05/08 09:47:44;;;;;;;0.65;0.65;;;;;;;;;;5030696;28;20345;-55
2022/05/08 09:50:31;;;;;;;0.82;0.60;;;;;;;;;;5028934;28;20633;-55
2022/05/08 09:53:19;;;;;;;0.60;0.60;;;;;;;;;;5028933;28;20321;-55
2022/05/08 09:56:07;;;;;;;0.70;0.70;;;;;;;;;;5034425;28;20211;-55
2022/05/08 09:58:54;;;;;;;0.60;0.60;;;;;;;;;;5030102;28;20606;-55
2022/05/08 10:01:43;;;;;;;0.90;0.90;;;;;;;;;;5033005;28;20623;-56
2022/05/08 10:04:35;;;;;;;0.73;0.60;;;;;;;;;;5034993;28;20242;-55
2022/05/08 10:07:22;;;;;;;0.57;0.57;;;;;;;;;;5030040;28;20592;-55
2022/05/08 10:16:47;;;;;;;0.50;0.50;;;;;;;;;;5031195;28;20285;-56
2022/05/08 10:19:50;;;;;;;0.57;0.57;;;;;;;;;;5025557;28;20235;-56
2022/05/08 10:22:48;;;;;;;0.50;0.50;;;;;;;;;;5031475;28;20233;-56
2022/05/08 10:25:35;;;;;;;0.60;0.60;;;;;;;;;;5030449;28;20209;-56
2022/05/08 10:28:22;;;;;;;0.70;0.70;;;;;;;;;;5031155;28;20690;-56
2022/05/08 10:31:43;;;;;;;0.43;0.43;;;;;;;;;;5031892;28;20226;-56
2022/05/08 10:34:32;;;;;;;0.60;0.60;;;;;;;;;;5030446;28;20681;-56
2022/05/08 10:37:29;;;;;;;0.50;0.50;;;;;;;;;;5032210;28;20305;-56
2022/05/08 10:40:36;;;;;;;0.52;0.52;;;;;;;;;;5029598;28;20267;-56
2022/05/08 10:43:30;;;;;;;0.80;0.80;;;;;;;;;;5030159;28;20213;-55
2022/05/08 10:46:24;;;;;;;0.50;0.50;;;;;;;;;;5029122;28;20351;-56
2022/05/08 10:49:11;;;;;;;1.77;0.90;;;;;;;;;;5034469;28;20727;-56
2022/05/08 10:52:07;;;;;;;0.60;0.60;;;;;;;;;;5029381;28;20213;-56
2022/05/08 10:54:59;;;;;;;0.70;0.70;;;;;;;;;;5032939;28;20250;-56
2022/05/08 10:57:48;;;;;;;0.67;0.60;;;;;;;;;;5032317;28;20252;-56
2022/05/08 11:00:35;;;;;;;0.90;0.50;;;;;;;;;;5033691;28;20722;-59
2022/05/08 11:03:22;;;;;;;1.37;0.50;;;;;;;;;;5031409;28;20356;-56
2022/05/08 11:06:10;;;;;;;0.63;0.60;;;;;;;;;;5030201;28;20266;-56
2022/05/08 11:09:00;;;;;;;0.50;0.50;;;;;;;;;;5028575;28;20202;-56
2022/05/08 11:11:48;;;;;;;1.03;0.53;;;;;;;;;;5030130;28;20207;-56
2022/05/08 11:14:35;;;;;;;0.60;0.60;;;;;;;;;;5032594;28;20206;-56
2022/05/08 11:17:22;;;;;;;0.52;0.52;;;;;;;;;;5029790;28;20223;-56
2022/05/08 11:20:09;;;;;;;0.50;0.50;;;;;;;;;;5028193;28;20692;-56
2022/05/08 11:22:57;;;;;;;0.60;0.60;;;;;;;;;;5033420;28;20742;-55
2022/05/08 11:25:46;;;;;;;0.93;0.57;;;;;;;;;;5028708;28;20214;-57
2022/05/08 11:28:35;;;;;;;0.40;0.40;;;;;;;;;;5035228;28;20237;-55
2022/05/08 11:31:27;;;;;;;0.60;0.55;;;;;;;;;;5032254;28;20212;-55
2022/05/08 11:37:20;;;;;;;0.50;0.50;;;;;;;;;;5032241;28;20319;-57
2022/05/08 11:40:09;;;;;;;0.50;0.50;;;;;;;;;;5030092;28;20581;-57
2022/05/08 11:42:56;;;;;;;0.37;0.37;;;;;;;;;;5029593;28;20218;-56
2022/05/08 11:45:59;;;;;;;0.53;0.53;;;;;;;;;;5032172;28;20230;-56
2022/05/08 11:48:48;;;;;;;0.47;0.37;;;;;;;;;;5032062;28;20235;-57
2022/05/08 11:51:42;;;;;;;0.60;0.60;;;;;;;;;;5032621;28;20330;-56
2022/05/08 11:54:30;;;;;;;1.30;0.50;;;;;;;;;;5039510;28;20767;-56
2022/05/08 11:57:19;;;;;;;0.40;0.40;;;;;;;;;;5033096;28;20220;-56
2022/05/08 12:00:10;;;;;;;0.40;0.40;;;;;;;;;;5029688;28;20214;-56
2022/05/08 12:02:58;;;;;;;0.50;0.50;;;;;;;;;;5031888;28;20252;-57
2022/05/08 12:05:46;;;;;;;0.83;0.70;;;;;;;;;;5032028;28;20215;-57
2022/05/08 12:08:32;;;;;;;0.40;0.40;;;;;;;;;;5035381;28;20212;-58
2022/05/08 12:11:30;;;;;;;0.47;0.40;;;;;;;;;;5032735;28;20685;-56
2022/05/08 12:14:17;;;;;;;0.50;0.50;;;;;;;;;;5032069;28;20217;-56
2022/05/08 12:17:04;;;;;;;0.50;0.50;;;;;;;;;;5030145;28;20691;-56
2022/05/08 12:19:53;;;;;;;0.63;0.63;;;;;;;;;;5030843;28;20361;-57
2022/05/08 12:22:41;;;;;;;0.50;0.50;;;;;;;;;;5031687;28;20238;-56
2022/05/08 12:25:29;;;;;;;0.50;0.50;;;;;;;;;;5031247;28;20227;-56
2022/05/08 12:28:16;;;;;;;0.43;0.40;;;;;;;;;;5028073;28;20219;-56
2022/05/08 12:31:03;;;;;;;0.63;0.47;;;;;;;;;;5030334;28;20591;-56
2022/05/08 12:33:50;;;;;;;0.40;0.40;;;;;;;;;;5031609;28;20705;-56
2022/05/08 12:36:40;;;;;;;0.50;0.50;;;;;;;;;;5031128;28;20625;-56
2022/05/08 12:39:30;;;;;;;0.60;0.60;;;;;;;;;;5029085;28;20231;-57
2022/05/08 12:42:17;;;;;;;0.57;0.53;;;;;;;;;;5032023;28;20256;-56
2022/05/08 12:45:06;;;;;;;0.50;0.50;;;;;;;;;;5034806;28;20337;-56
2022/05/08 12:47:53;;;;;;;0.40;0.40;;;;;;;;;;5032950;28;20218;-56
2022/05/08 12:50:40;;;;;;;0.53;0.53;;;;;;;;;;5029749;28;20208;-56
2022/05/08 12:53:28;;;;;;;0.60;0.60;;;;;;;;;;5029737;28;20296;-57
2022/05/08 12:56:17;;;;;;;0.40;0.40;;;;;;;;;;5031853;28;20680;-56
2022/05/08 13:02:10;;;;;;;1.07;0.50;;;;;;;;;;5030945;28;20572;-56
2022/05/08 13:04:57;;;;;;;0.73;0.40;;;;;;;;;;5026653;28;20236;-57
2022/05/08 13:07:44;;;;;;;0.70;0.57;;;;;;;;;;5030885;28;20691;-56
2022/05/08 13:10:35;;;;;;;0.43;0.40;;;;;;;;;;5030954;28;20249;-56
2022/05/08 13:13:22;;;;;;;0.43;0.43;;;;;;;;;;5031542;28;20225;-57
2022/05/08 13:16:11;;;;;;;0.60;0.60;;;;;;;;;;5028921;28;20321;-56
2022/05/08 13:18:59;;;;;;;0.47;0.47;;;;;;;;;;5032604;28;20319;-56
2022/05/08 13:21:46;;;;;;;0.60;0.40;;;;;;;;;;5036247;28;20241;-57
2022/05/08 13:24:34;;;;;;;1.13;0.53;;;;;;;;;;5026089;28;20219;-57
2022/05/08 13:27:22;;;;;;;0.40;0.40;;;;;;;;;;5035268;28;20344;-57
2022/05/08 13:30:11;;;;;;;0.50;0.50;;;;;;;;;;5027704;28;20340;-56
2022/05/08 13:32:58;;;;;;;0.67;0.43;;;;;;;;;;5026468;28;20569;-56
2022/05/08 13:35:45;;;;;;;1.23;0.70;;;;;;;;;;5030683;28;20204;-57
2022/05/08 13:38:31;;;;;;;1.10;0.67;;;;;;;;;;5027979;28;20697;-56
2022/05/08 13:41:19;;;;;;;0.50;0.50;;;;;;;;;;5029863;28;20342;-56
2022/05/08 13:44:07;;;;;;;0.43;0.43;;;;;;;;;;5030218;28;20244;-56
2022/05/08 13:46:54;;;;;;;0.60;0.60;;;;;;;;;;5028160;28;20664;-57
2022/05/08 13:49:41;;;;;;;0.50;0.50;;;;;;;;;;5029805;28;20311;-56
2022/05/08 13:52:29;;;;;;;0.53;0.53;;;;;;;;;;5031346;28;20341;-56
2022/05/08 13:55:17;;;;;;;0.53;0.53;;;;;;;;;;5027777;28;20278;-56
2022/05/08 13:58:04;;;;;;;0.40;0.40;;;;;;;;;;5029579;28;20672;-56
2022/05/08 14:00:52;;;;;;;0.77;0.40;;;;;;;;;;5030114;28;20707;-56
2022/05/08 14:03:39;;;;;;;0.63;0.63;;;;;;;;;;5029823;28;20658;-56
2022/05/08 14:06:28;;;;;;;0.60;0.60;;;;;;;;;;5029753;28;20290;-55
2022/05/08 14:09:15;;;;;;;0.57;0.57;;;;;;;;;;5030504;28;20205;-55
2022/05/08 14:12:02;;;;;;;0.50;0.50;;;;;;;;;;5030940;28;20289;-58
2022/05/08 14:14:49;;;;;;;2.13;0.60;;;;;;;;;;5030031;28;20308;-55
2022/05/08 14:17:38;;;;;;;0.47;0.47;;;;;;;;;;5027341;28;20242;-57
2022/05/08 14:20:26;;;;;;;0.40;0.40;;;;;;;;;;5027100;28;20329;-55
2022/05/08 14:23:13;;;;;;;0.60;0.40;;;;;;;;;;5029448;28;20238;-55
2022/05/08 14:26:00;;;;;;;0.63;0.63;;;;;;;;;;5028084;28;20302;-55
2022/05/08 14:28:47;;;;;;;0.63;0.63;;;;;;;;;;5029660;28;20342;-56
2022/05/08 14:37:43;;;;;;;0.50;0.50;;;;;;;;;;5026889;28;20252;-55
2022/05/08 14:40:31;;;;;;;0.40;0.40;;;;;;;;;;5031295;28;20308;-56
2022/05/08 14:43:18;;;;;;;0.43;0.43;;;;;;;;;;5027188;28;20730;-55
2022/05/08 14:46:05;;;;;;;0.57;0.57;;;;;;;;;;5029467;28;20211;-56
2022/05/08 14:48:52;;;;;;;0.80;0.50;;;;;;;;;;5028603;28;20233;-55
2022/05/08 14:51:41;;;;;;;0.50;0.50;;;;;;;;;;5026175;28;20232;-55
2022/05/08 14:54:28;;;;;;;1.23;0.57;;;;;;;;;;5031880;28;20220;-55
2022/05/08 14:57:15;;;;;;;0.50;0.50;;;;;;;;;;5030399;28;20237;-55
2022/05/08 15:00:02;;;;;;;2.07;0.70;;;;;;;;;;5030238;28;20233;-55
2022/05/08 15:02:49;;;;;;;0.50;0.50;;;;;;;;;;5026657;28;20316;-56
2022/05/08 15:05:37;;;;;;;0.50;0.50;;;;;;;;;;5031659;28;20748;-56
2022/05/08 15:08:25;;;;;;;0.70;0.70;;;;;;;;;;5032641;28;20216;-56
2022/05/08 15:11:14;;;;;;;0.67;0.63;;;;;;;;;;5032345;28;20220;-56
2022/05/08 15:14:01;;;;;;;0.50;0.50;;;;;;;;;;5039500;28;20622;-57
2022/05/08 15:16:48;;;;;;;0.87;0.50;;;;;;;;;;5033731;28;20210;-57
2022/05/08 15:19:35;;;;;;;1.57;0.60;;;;;;;;;;5034664;28;20216;-57
2022/05/08 15:22:22;;;;;;;0.57;0.57;;;;;;;;;;5031294;28;20308;-56
2022/05/08 15:25:10;;;;;;;0.50;0.50;;;;;;;;;;5031651;28;20678;-56
2022/05/08 15:27:57;;;;;;;0.50;0.50;;;;;;;;;;5033224;28;20216;-56
2022/05/08 15:30:44;;;;;;;0.50;0.50;;;;;;;;;;5033935;28;20258;-56
2022/05/08 15:33:31;;;;;;;0.57;0.57;;;;;;;;;;5038836;28;21328;-56
2022/05/08 15:36:18;;;;;;;0.40;0.40;;;;;;;;;;5032577;28;20225;-55
2022/05/08 15:39:05;;;;;;;1.20;0.60;;;;;;;;;;5029984;28;20707;-55
2022/05/08 15:41:53;;;;;;;0.77;0.63;;;;;;;;;;5034169;28;20252;-55
2022/05/08 15:44:40;;;;;;;0.63;0.63;;;;;;;;;;5036220;28;20216;-55
2022/05/08 15:47:27;;;;;;;0.60;0.60;;;;;;;;;;5034421;28;20626;-56
2022/05/08 15:50:14;;;;;;;0.53;0.53;;;;;;;;;;5012437;28;20237;-56
2022/05/08 15:53:01;;;;;;;0.57;0.57;;;;;;;;;;5013123;28;20764;-56
2022/05/08 15:55:48;;;;;;;1.70;0.57;;;;;;;;;;5011748;28;20296;-55
2022/05/08 15:58:36;;;;;;;0.40;0.40;;;;;;;;;;5014701;28;20288;-56
2022/05/08 16:01:24;;;;;;;0.50;0.50;;;;;;;;;;5018030;28;20224;-56
2022/05/08 16:04:12;;;;;;;0.60;0.47;;;;;;;;;;5010564;28;20217;-56
2022/05/08 16:06:59;;;;;;;0.40;0.40;;;;;;;;;;5013418;28;20289;-56
2022/05/08 16:09:46;;;;;;;0.70;0.70;;;;;;;;;;5014038;28;20201;-56
2022/05/08 16:24:48;;;;;;;0.50;0.50;;;;;;;;;;5009764;28;20274;-56
2022/05/08 16:27:36;;;;;;;0.70;0.70;;;;;;;;;;5011788;28;20700;-56
2022/05/08 16:30:23;;;;;;;0.63;0.60;;;;;;;;;;5010711;28;20227;-56
2022/05/08 16:33:11;;;;;;;0.30;0.30;;;;;;;;;;5011417;28;20292;-56
2022/05/08 16:35:58;;;;;;;0.50;0.50;;;;;;;;;;5011927;28;20301;-56
2022/05/08 16:38:45;;;;;;;0.60;0.60;;;;;;;;;;5011660;28;20291;-56
2022/05/08 16:41:32;;;;;;;0.60;0.60;;;;;;;;;;5009770;28;20267;-56
2022/05/08 16:44:20;;;;;;;0.47;0.47;;;;;;;;;;5018730;28;20283;-57
2022/05/08 16:47:07;;;;;;;0.50;0.50;;;;;;;;;;5010121;28;20212;-56
2022/05/08 16:49:56;;;;;;;0.40;0.40;;;;;;;;;;5009716;28;20633;-56
2022/05/08 16:52:43;;;;;;;0.50;0.50;;;;;;;;;;5014412;28;20355;-56
2022/05/08 16:55:30;;;;;;;0.50;0.50;;;;;;;;;;5009727;28;20263;-56
2022/05/08 16:58:18;;;;;;;0.40;0.40;;;;;;;;;;5012856;28;20223;-56
2022/05/08 17:01:06;;;;;;;0.60;0.60;;;;;;;;;;5009218;28;20229;-55
2022/05/08 17:03:56;;;;;;;0.50;0.50;;;;;;;;;;5010257;28;20217;-56
2022/05/08 17:06:45;;;;;;;0.67;0.57;;;;;;;;;;5009200;28;20266;-56
2022/05/08 17:09:31;;;;;;;0.57;0.57;;;;;;;;;;5012252;28;20205;-56
2022/05/08 17:12:20;;;;;;;0.43;0.43;;;;;;;;;;5012260;28;20287;-57
2022/05/08 17:15:08;;;;;;;0.53;0.53;;;;;;;;;;5013418;28;20290;-57
2022/05/08 17:17:55;;;;;;;0.87;0.50;;;;;;;;;;5012729;28;20671;-56
2022/05/08 17:20:42;;;;;;;0.60;0.60;;;;;;;;;;5010641;28;20814;-56
2022/05/08 17:23:30;;;;;;;0.63;0.63;;;;;;;;;;5018405;28;20243;-56
2022/05/08 17:26:18;;;;;;;0.40;0.40;;;;;;;;;;5013536;28;20216;-56
2022/05/08 17:29:04;;;;;;;0.50;0.50;;;;;;;;;;5009102;28;20212;-56
2022/05/08 17:31:51;;;;;;;0.40;0.40;;;;;;;;;;5010219;28;20205;-56
2022/05/08 17:34:38;;;;;;;0.40;0.40;;;;;;;;;;5013810;28;20270;-56
2022/05/08 17:37:25;;;;;;;1.50;0.97;;;;;;;;;;5017963;28;20222;-56